sensor_id;sensor_type;location;lat;lon;timestamp;P1;durP1;ratioP1;P2;durP2;ratioP2
32172;SDS011;18679;45.190;5.722;2023-10-19T00:00:10;14.98;;;7.40;;
32172;SDS011;18679;45.190;5.722;2023-10-19T00:03:23;15.90;;;7.20;;
32172;SDS011;18679;45.190;5.722;2023-10-19T00:06:24;14.73;;;7.38;;
32172;SDS011;18679;45.190;5.722;2023-10-19T00:09:25;13.75;;;6.70;;
32172;SDS011;18679;45.190;5.722;2023-10-19T00:12:31;19.83;;;7.18;;
32172;SDS011;18679;45.190;5.722;2023-10-19T00:15:33;16.63;;;6.63;;
32172;SDS011;18679;45.190;5.722;2023-10-19T00:18:51;20.58;;;7.72;;
32172;SDS011;18679;45.190;5.722;2023-10-19T00:21:53;21.10;;;8.00;;
32172;SDS011;18679;45.190;5.722;2023-10-19T00:25:08;14.23;;;7.20;;
32172;SDS011;18679;45.190;5.722;2023-10-19T00:28:13;20.85;;;7.78;;
32172;SDS011;18679;45.190;5.722;2023-10-19T00:31:16;12.48;;;7.15;;
32172;SDS011;18679;45.190;5.722;2023-10-19T00:34:20;20.77;;;7.57;;
32172;SDS011;18679;45.190;5.722;2023-10-19T00:37:21;15.65;;;7.57;;
32172;SDS011;18679;45.190;5.722;2023-10-19T00:40:27;16.40;;;7.80;;
32172;SDS011;18679;45.190;5.722;2023-10-19T00:43:38;17.55;;;7.53;;
32172;SDS011;18679;45.190;5.722;2023-10-19T00:46:46;13.57;;;7.40;;
32172;SDS011;18679;45.190;5.722;2023-10-19T00:49:51;12.98;;;6.35;;
32172;SDS011;18679;45.190;5.722;2023-10-19T00:52:54;14.73;;;6.43;;
32172;SDS011;18679;45.190;5.722;2023-10-19T00:55:57;12.35;;;5.95;;
32172;SDS011;18679;45.190;5.722;2023-10-19T00:59:01;11.70;;;6.18;;
32172;SDS011;18679;45.190;5.722;2023-10-19T01:02:15;12.68;;;6.20;;
32172;SDS011;18679;45.190;5.722;2023-10-19T01:05:25;10.27;;;5.63;;
32172;SDS011;18679;45.190;5.722;2023-10-19T01:08:36;17.67;;;6.40;;
32172;SDS011;18679;45.190;5.722;2023-10-19T01:11:47;13.85;;;5.55;;
32172;SDS011;18679;45.190;5.722;2023-10-19T01:18:14;13.70;;;6.28;;
32172;SDS011;18679;45.190;5.722;2023-10-19T01:21:17;16.17;;;6.28;;
32172;SDS011;18679;45.190;5.722;2023-10-19T01:24:21;20.17;;;8.40;;
32172;SDS011;18679;45.190;5.722;2023-10-19T01:27:40;13.52;;;6.65;;
32172;SDS011;18679;45.190;5.722;2023-10-19T01:30:41;15.35;;;7.57;;
32172;SDS011;18679;45.190;5.722;2023-10-19T01:33:45;14.50;;;7.05;;
32172;SDS011;18679;45.190;5.722;2023-10-19T01:36:46;14.57;;;7.07;;
32172;SDS011;18679;45.190;5.722;2023-10-19T01:39:50;26.13;;;7.60;;
32172;SDS011;18679;45.190;5.722;2023-10-19T01:42:52;14.57;;;7.40;;
32172;SDS011;18679;45.190;5.722;2023-10-19T01:45:53;16.70;;;7.28;;
32172;SDS011;18679;45.190;5.722;2023-10-19T01:48:57;11.55;;;6.35;;
32172;SDS011;18679;45.190;5.722;2023-10-19T01:51:58;16.75;;;7.43;;
32172;SDS011;18679;45.190;5.722;2023-10-19T01:54:58;16.23;;;7.03;;
32172;SDS011;18679;45.190;5.722;2023-10-19T01:58:04;17.25;;;7.80;;
32172;SDS011;18679;45.190;5.722;2023-10-19T02:01:06;13.98;;;6.50;;
32172;SDS011;18679;45.190;5.722;2023-10-19T02:04:28;19.98;;;7.50;;
32172;SDS011;18679;45.190;5.722;2023-10-19T02:07:30;23.20;;;8.38;;
32172;SDS011;18679;45.190;5.722;2023-10-19T02:10:31;12.82;;;7.22;;
32172;SDS011;18679;45.190;5.722;2023-10-19T02:13:32;16.20;;;7.80;;
32172;SDS011;18679;45.190;5.722;2023-10-19T02:16:33;13.90;;;7.75;;
32172;SDS011;18679;45.190;5.722;2023-10-19T02:19:36;15.93;;;7.50;;
32172;SDS011;18679;45.190;5.722;2023-10-19T02:22:37;13.82;;;7.47;;
32172;SDS011;18679;45.190;5.722;2023-10-19T02:25:38;17.80;;;8.38;;
32172;SDS011;18679;45.190;5.722;2023-10-19T02:28:40;16.13;;;7.80;;
32172;SDS011;18679;45.190;5.722;2023-10-19T02:31:44;18.50;;;7.75;;
32172;SDS011;18679;45.190;5.722;2023-10-19T02:34:46;14.93;;;7.47;;
32172;SDS011;18679;45.190;5.722;2023-10-19T02:37:47;15.02;;;8.15;;
32172;SDS011;18679;45.190;5.722;2023-10-19T02:40:47;13.20;;;7.10;;
32172;SDS011;18679;45.190;5.722;2023-10-19T02:43:48;22.17;;;8.30;;
32172;SDS011;18679;45.190;5.722;2023-10-19T02:47:01;17.42;;;7.90;;
32172;SDS011;18679;45.190;5.722;2023-10-19T02:50:09;18.10;;;7.53;;
32172;SDS011;18679;45.190;5.722;2023-10-19T02:53:14;13.15;;;7.07;;
32172;SDS011;18679;45.190;5.722;2023-10-19T02:56:15;16.67;;;7.22;;
32172;SDS011;18679;45.190;5.722;2023-10-19T02:59:17;18.42;;;8.27;;
32172;SDS011;18679;45.190;5.722;2023-10-19T03:02:23;16.02;;;6.45;;
32172;SDS011;18679;45.190;5.722;2023-10-19T03:05:26;14.38;;;7.20;;
32172;SDS011;18679;45.190;5.722;2023-10-19T03:08:28;16.13;;;6.28;;
32172;SDS011;18679;45.190;5.722;2023-10-19T03:11:31;21.20;;;7.40;;
32172;SDS011;18679;45.190;5.722;2023-10-19T03:14:33;16.67;;;6.65;;
32172;SDS011;18679;45.190;5.722;2023-10-19T03:17:34;15.23;;;6.82;;
32172;SDS011;18679;45.190;5.722;2023-10-19T03:20:37;16.60;;;7.28;;
32172;SDS011;18679;45.190;5.722;2023-10-19T03:23:38;13.85;;;6.53;;
32172;SDS011;18679;45.190;5.722;2023-10-19T03:26:41;14.52;;;6.55;;
32172;SDS011;18679;45.190;5.722;2023-10-19T03:29:49;15.82;;;6.65;;
32172;SDS011;18679;45.190;5.722;2023-10-19T03:33:14;13.00;;;6.55;;
32172;SDS011;18679;45.190;5.722;2023-10-19T03:36:18;14.55;;;5.82;;
32172;SDS011;18679;45.190;5.722;2023-10-19T03:39:19;11.55;;;6.18;;
32172;SDS011;18679;45.190;5.722;2023-10-19T03:42:21;11.32;;;5.43;;
32172;SDS011;18679;45.190;5.722;2023-10-19T03:45:26;15.40;;;6.18;;
32172;SDS011;18679;45.190;5.722;2023-10-19T03:48:27;24.33;;;7.10;;
32172;SDS011;18679;45.190;5.722;2023-10-19T03:51:34;19.52;;;7.53;;
32172;SDS011;18679;45.190;5.722;2023-10-19T03:54:58;12.57;;;6.60;;
32172;SDS011;18679;45.190;5.722;2023-10-19T03:57:59;12.75;;;6.30;;
32172;SDS011;18679;45.190;5.722;2023-10-19T04:01:00;14.65;;;6.40;;
32172;SDS011;18679;45.190;5.722;2023-10-19T04:04:05;13.57;;;6.43;;
32172;SDS011;18679;45.190;5.722;2023-10-19T04:07:06;14.52;;;7.28;;
32172;SDS011;18679;45.190;5.722;2023-10-19T04:10:18;12.68;;;6.47;;
32172;SDS011;18679;45.190;5.722;2023-10-19T04:13:34;13.85;;;6.32;;
32172;SDS011;18679;45.190;5.722;2023-10-19T04:16:36;21.58;;;6.28;;
32172;SDS011;18679;45.190;5.722;2023-10-19T04:19:37;14.77;;;6.38;;
32172;SDS011;18679;45.190;5.722;2023-10-19T04:22:39;12.27;;;6.07;;
32172;SDS011;18679;45.190;5.722;2023-10-19T04:25:40;13.25;;;5.90;;
32172;SDS011;18679;45.190;5.722;2023-10-19T04:28:41;12.10;;;6.45;;
32172;SDS011;18679;45.190;5.722;2023-10-19T04:31:44;16.98;;;6.70;;
32172;SDS011;18679;45.190;5.722;2023-10-19T04:34:54;13.88;;;5.82;;
32172;SDS011;18679;45.190;5.722;2023-10-19T04:37:55;11.43;;;6.10;;
32172;SDS011;18679;45.190;5.722;2023-10-19T04:41:04;10.90;;;5.50;;
32172;SDS011;18679;45.190;5.722;2023-10-19T04:44:08;9.82;;;5.68;;
32172;SDS011;18679;45.190;5.722;2023-10-19T04:47:09;11.40;;;5.90;;
32172;SDS011;18679;45.190;5.722;2023-10-19T04:50:10;14.20;;;5.40;;
32172;SDS011;18679;45.190;5.722;2023-10-19T04:53:11;11.43;;;5.28;;
32172;SDS011;18679;45.190;5.722;2023-10-19T04:56:12;15.55;;;5.80;;
32172;SDS011;18679;45.190;5.722;2023-10-19T04:59:13;14.27;;;6.25;;
32172;SDS011;18679;45.190;5.722;2023-10-19T05:02:13;16.27;;;7.10;;
32172;SDS011;18679;45.190;5.722;2023-10-19T05:05:14;11.23;;;6.65;;
32172;SDS011;18679;45.190;5.722;2023-10-19T05:08:17;13.90;;;6.80;;
32172;SDS011;18679;45.190;5.722;2023-10-19T05:11:18;11.02;;;6.60;;
32172;SDS011;18679;45.190;5.722;2023-10-19T05:14:19;14.05;;;6.72;;
32172;SDS011;18679;45.190;5.722;2023-10-19T05:17:20;10.75;;;6.40;;
32172;SDS011;18679;45.190;5.722;2023-10-19T05:20:23;11.80;;;6.13;;
32172;SDS011;18679;45.190;5.722;2023-10-19T05:23:26;16.08;;;6.32;;
32172;SDS011;18679;45.190;5.722;2023-10-19T05:26:28;11.13;;;5.88;;
32172;SDS011;18679;45.190;5.722;2023-10-19T05:29:30;13.95;;;6.10;;
32172;SDS011;18679;45.190;5.722;2023-10-19T05:32:33;12.60;;;6.80;;
32172;SDS011;18679;45.190;5.722;2023-10-19T05:35:33;12.10;;;6.25;;
32172;SDS011;18679;45.190;5.722;2023-10-19T05:38:40;12.98;;;6.97;;
32172;SDS011;18679;45.190;5.722;2023-10-19T05:41:41;11.27;;;6.10;;
32172;SDS011;18679;45.190;5.722;2023-10-19T05:44:42;10.13;;;5.97;;
32172;SDS011;18679;45.190;5.722;2023-10-19T05:47:43;15.18;;;6.45;;
32172;SDS011;18679;45.190;5.722;2023-10-19T05:50:44;11.63;;;6.43;;
32172;SDS011;18679;45.190;5.722;2023-10-19T05:53:45;10.02;;;6.15;;
32172;SDS011;18679;45.190;5.722;2023-10-19T05:56:46;15.85;;;7.03;;
32172;SDS011;18679;45.190;5.722;2023-10-19T05:59:47;13.73;;;6.10;;
32172;SDS011;18679;45.190;5.722;2023-10-19T06:02:48;11.63;;;5.63;;
32172;SDS011;18679;45.190;5.722;2023-10-19T06:05:49;14.50;;;6.03;;
32172;SDS011;18679;45.190;5.722;2023-10-19T06:08:50;13.88;;;7.15;;
32172;SDS011;18679;45.190;5.722;2023-10-19T06:11:53;17.23;;;6.90;;
32172;SDS011;18679;45.190;5.722;2023-10-19T06:14:54;15.30;;;6.85;;
32172;SDS011;18679;45.190;5.722;2023-10-19T06:17:55;15.02;;;5.50;;
32172;SDS011;18679;45.190;5.722;2023-10-19T06:20:56;9.43;;;5.55;;
32172;SDS011;18679;45.190;5.722;2023-10-19T06:23:57;12.90;;;5.50;;
32172;SDS011;18679;45.190;5.722;2023-10-19T06:26:58;10.32;;;4.80;;
32172;SDS011;18679;45.190;5.722;2023-10-19T06:29:59;21.63;;;5.85;;
32172;SDS011;18679;45.190;5.722;2023-10-19T06:33:00;13.02;;;5.38;;
32172;SDS011;18679;45.190;5.722;2023-10-19T06:36:02;11.40;;;4.95;;
32172;SDS011;18679;45.190;5.722;2023-10-19T06:39:03;12.10;;;6.28;;
32172;SDS011;18679;45.190;5.722;2023-10-19T06:42:07;14.80;;;5.15;;
32172;SDS011;18679;45.190;5.722;2023-10-19T06:45:14;15.15;;;6.35;;
32172;SDS011;18679;45.190;5.722;2023-10-19T06:48:16;13.85;;;5.45;;
32172;SDS011;18679;45.190;5.722;2023-10-19T06:51:17;16.27;;;6.00;;
32172;SDS011;18679;45.190;5.722;2023-10-19T06:54:18;15.52;;;6.03;;
32172;SDS011;18679;45.190;5.722;2023-10-19T06:57:18;8.85;;;4.97;;
32172;SDS011;18679;45.190;5.722;2023-10-19T07:00:20;9.43;;;4.78;;
32172;SDS011;18679;45.190;5.722;2023-10-19T07:03:22;13.45;;;5.65;;
32172;SDS011;18679;45.190;5.722;2023-10-19T07:06:23;9.00;;;5.00;;
32172;SDS011;18679;45.190;5.722;2023-10-19T07:09:24;9.82;;;4.72;;
32172;SDS011;18679;45.190;5.722;2023-10-19T07:12:26;11.50;;;5.40;;
32172;SDS011;18679;45.190;5.722;2023-10-19T07:15:27;15.10;;;4.70;;
32172;SDS011;18679;45.190;5.722;2023-10-19T07:18:29;10.60;;;5.15;;
32172;SDS011;18679;45.190;5.722;2023-10-19T07:21:30;14.30;;;4.68;;
32172;SDS011;18679;45.190;5.722;2023-10-19T07:24:35;11.55;;;4.28;;
32172;SDS011;18679;45.190;5.722;2023-10-19T07:27:38;13.95;;;5.13;;
32172;SDS011;18679;45.190;5.722;2023-10-19T07:30:43;9.82;;;4.35;;
32172;SDS011;18679;45.190;5.722;2023-10-19T07:33:44;7.90;;;4.40;;
32172;SDS011;18679;45.190;5.722;2023-10-19T07:36:50;16.25;;;4.75;;
32172;SDS011;18679;45.190;5.722;2023-10-19T07:39:51;14.05;;;5.00;;
32172;SDS011;18679;45.190;5.722;2023-10-19T07:42:52;12.25;;;6.00;;
32172;SDS011;18679;45.190;5.722;2023-10-19T07:45:54;10.45;;;4.72;;
32172;SDS011;18679;45.190;5.722;2023-10-19T07:48:56;18.63;;;5.75;;
32172;SDS011;18679;45.190;5.722;2023-10-19T07:51:59;11.07;;;5.90;;
32172;SDS011;18679;45.190;5.722;2023-10-19T07:55:00;15.77;;;5.40;;
32172;SDS011;18679;45.190;5.722;2023-10-19T07:58:02;11.13;;;4.45;;
32172;SDS011;18679;45.190;5.722;2023-10-19T08:01:04;14.68;;;5.53;;
32172;SDS011;18679;45.190;5.722;2023-10-19T08:04:06;18.15;;;5.20;;
32172;SDS011;18679;45.190;5.722;2023-10-19T08:07:07;13.88;;;4.53;;
32172;SDS011;18679;45.190;5.722;2023-10-19T08:10:10;10.15;;;4.18;;
32172;SDS011;18679;45.190;5.722;2023-10-19T08:13:12;9.70;;;4.35;;
32172;SDS011;18679;45.190;5.722;2023-10-19T08:16:13;11.95;;;4.00;;
32172;SDS011;18679;45.190;5.722;2023-10-19T08:19:14;6.82;;;3.97;;
32172;SDS011;18679;45.190;5.722;2023-10-19T08:22:15;18.05;;;4.72;;
32172;SDS011;18679;45.190;5.722;2023-10-19T08:25:16;11.48;;;4.53;;
32172;SDS011;18679;45.190;5.722;2023-10-19T08:28:17;14.82;;;3.95;;
32172;SDS011;18679;45.190;5.722;2023-10-19T08:31:18;7.32;;;3.42;;
32172;SDS011;18679;45.190;5.722;2023-10-19T08:34:19;12.43;;;3.55;;
32172;SDS011;18679;45.190;5.722;2023-10-19T08:37:20;9.85;;;3.53;;
32172;SDS011;18679;45.190;5.722;2023-10-19T08:40:21;15.30;;;3.78;;
32172;SDS011;18679;45.190;5.722;2023-10-19T08:43:24;15.25;;;4.40;;
32172;SDS011;18679;45.190;5.722;2023-10-19T08:46:25;11.00;;;3.97;;
32172;SDS011;18679;45.190;5.722;2023-10-19T08:49:26;8.23;;;3.70;;
32172;SDS011;18679;45.190;5.722;2023-10-19T08:52:28;14.40;;;4.45;;
32172;SDS011;18679;45.190;5.722;2023-10-19T08:55:29;6.20;;;3.10;;
32172;SDS011;18679;45.190;5.722;2023-10-19T08:58:31;14.35;;;4.00;;
32172;SDS011;18679;45.190;5.722;2023-10-19T09:01:31;6.25;;;3.42;;
32172;SDS011;18679;45.190;5.722;2023-10-19T09:04:40;5.90;;;3.35;;
32172;SDS011;18679;45.190;5.722;2023-10-19T09:07:43;11.02;;;4.22;;
32172;SDS011;18679;45.190;5.722;2023-10-19T09:10:48;7.60;;;4.07;;
32172;SDS011;18679;45.190;5.722;2023-10-19T09:13:53;9.93;;;4.55;;
32172;SDS011;18679;45.190;5.722;2023-10-19T09:16:54;18.67;;;4.30;;
32172;SDS011;18679;45.190;5.722;2023-10-19T09:19:56;20.27;;;4.38;;
32172;SDS011;18679;45.190;5.722;2023-10-19T09:22:57;12.48;;;3.58;;
32172;SDS011;18679;45.190;5.722;2023-10-19T09:25:59;11.07;;;4.65;;
32172;SDS011;18679;45.190;5.722;2023-10-19T09:29:04;8.75;;;3.60;;
32172;SDS011;18679;45.190;5.722;2023-10-19T09:32:05;8.23;;;3.63;;
32172;SDS011;18679;45.190;5.722;2023-10-19T09:35:07;6.15;;;3.25;;
32172;SDS011;18679;45.190;5.722;2023-10-19T09:38:11;12.27;;;3.85;;
32172;SDS011;18679;45.190;5.722;2023-10-19T09:41:12;12.85;;;3.63;;
32172;SDS011;18679;45.190;5.722;2023-10-19T09:44:13;20.13;;;6.72;;
32172;SDS011;18679;45.190;5.722;2023-10-19T09:47:27;12.23;;;4.53;;
32172;SDS011;18679;45.190;5.722;2023-10-19T09:50:35;11.82;;;4.57;;
32172;SDS011;18679;45.190;5.722;2023-10-19T09:53:36;18.50;;;4.18;;
32172;SDS011;18679;45.190;5.722;2023-10-19T09:56:40;13.32;;;4.45;;
32172;SDS011;18679;45.190;5.722;2023-10-19T09:59:49;30.37;;;6.43;;
32172;SDS011;18679;45.190;5.722;2023-10-19T10:02:55;18.23;;;5.18;;
32172;SDS011;18679;45.190;5.722;2023-10-19T10:05:56;12.55;;;4.22;;
32172;SDS011;18679;45.190;5.722;2023-10-19T10:09:00;10.55;;;4.30;;
32172;SDS011;18679;45.190;5.722;2023-10-19T10:12:23;10.40;;;5.00;;
32172;SDS011;18679;45.190;5.722;2023-10-19T10:15:37;8.07;;;3.67;;
32172;SDS011;18679;45.190;5.722;2023-10-19T10:18:41;7.03;;;3.20;;
32172;SDS011;18679;45.190;5.722;2023-10-19T10:21:58;6.90;;;3.97;;
32172;SDS011;18679;45.190;5.722;2023-10-19T10:25:05;9.63;;;3.78;;
32172;SDS011;18679;45.190;5.722;2023-10-19T10:28:08;12.98;;;3.65;;
32172;SDS011;18679;45.190;5.722;2023-10-19T10:40:46;16.60;;;4.63;;
32172;SDS011;18679;45.190;5.722;2023-10-19T10:43:52;10.65;;;3.55;;
32172;SDS011;18679;45.190;5.722;2023-10-19T10:46:57;5.10;;;3.50;;
32172;SDS011;18679;45.190;5.722;2023-10-19T10:49:58;17.95;;;4.75;;
32172;SDS011;18679;45.190;5.722;2023-10-19T10:53:01;6.25;;;3.30;;
32172;SDS011;18679;45.190;5.722;2023-10-19T10:56:02;8.07;;;3.30;;
32172;SDS011;18679;45.190;5.722;2023-10-19T10:59:11;17.65;;;3.45;;
32172;SDS011;18679;45.190;5.722;2023-10-19T11:02:17;7.60;;;2.88;;
32172;SDS011;18679;45.190;5.722;2023-10-19T11:05:22;4.70;;;1.92;;
32172;SDS011;18679;45.190;5.722;2023-10-19T11:08:24;16.75;;;3.30;;
32172;SDS011;18679;45.190;5.722;2023-10-19T11:11:25;14.68;;;2.30;;
32172;SDS011;18679;45.190;5.722;2023-10-19T11:14:26;2.92;;;1.80;;
32172;SDS011;18679;45.190;5.722;2023-10-19T11:17:30;4.07;;;1.45;;
32172;SDS011;18679;45.190;5.722;2023-10-19T11:20:31;2.88;;;1.02;;
32172;SDS011;18679;45.190;5.722;2023-10-19T11:23:39;1.23;;;0.70;;
32172;SDS011;18679;45.190;5.722;2023-10-19T11:26:44;0.93;;;0.70;;
32172;SDS011;18679;45.190;5.722;2023-10-19T11:29:59;2.55;;;1.23;;
32172;SDS011;18679;45.190;5.722;2023-10-19T11:33:05;2.83;;;0.93;;
32172;SDS011;18679;45.190;5.722;2023-10-19T11:36:06;1.60;;;0.60;;
32172;SDS011;18679;45.190;5.722;2023-10-19T11:39:07;1.58;;;0.60;;
32172;SDS011;18679;45.190;5.722;2023-10-19T11:42:12;2.28;;;0.40;;
32172;SDS011;18679;45.190;5.722;2023-10-19T11:45:14;2.15;;;0.70;;
32172;SDS011;18679;45.190;5.722;2023-10-19T11:48:16;2.63;;;0.60;;
32172;SDS011;18679;45.190;5.722;2023-10-19T11:51:17;0.63;;;0.45;;
32172;SDS011;18679;45.190;5.722;2023-10-19T11:54:18;5.22;;;2.88;;
32172;SDS011;18679;45.190;5.722;2023-10-19T11:57:20;4.90;;;1.55;;
32172;SDS011;18679;45.190;5.722;2023-10-19T12:00:21;4.93;;;1.25;;
32172;SDS011;18679;45.190;5.722;2023-10-19T12:03:22;3.35;;;0.85;;
32172;SDS011;18679;45.190;5.722;2023-10-19T12:06:23;7.05;;;1.00;;
32172;SDS011;18679;45.190;5.722;2023-10-19T12:09:25;2.65;;;0.80;;
32172;SDS011;18679;45.190;5.722;2023-10-19T12:12:26;1.77;;;0.57;;
32172;SDS011;18679;45.190;5.722;2023-10-19T12:15:27;1.30;;;0.85;;
32172;SDS011;18679;45.190;5.722;2023-10-19T12:18:28;0.60;;;0.50;;
32172;SDS011;18679;45.190;5.722;2023-10-19T12:21:29;2.75;;;0.55;;
32172;SDS011;18679;45.190;5.722;2023-10-19T12:24:31;7.50;;;0.77;;
32172;SDS011;18679;45.190;5.722;2023-10-19T12:27:32;2.33;;;1.05;;
32172;SDS011;18679;45.190;5.722;2023-10-19T12:30:33;1.17;;;0.20;;
32172;SDS011;18679;45.190;5.722;2023-10-19T12:33:37;1.50;;;0.63;;
32172;SDS011;18679;45.190;5.722;2023-10-19T12:36:38;0.43;;;0.30;;
32172;SDS011;18679;45.190;5.722;2023-10-19T12:39:41;2.25;;;0.40;;
32172;SDS011;18679;45.190;5.722;2023-10-19T12:42:47;0.63;;;0.40;;
32172;SDS011;18679;45.190;5.722;2023-10-19T12:45:48;0.65;;;0.45;;
32172;SDS011;18679;45.190;5.722;2023-10-19T12:48:58;1.55;;;0.30;;
32172;SDS011;18679;45.190;5.722;2023-10-19T12:51:58;0.30;;;0.30;;
32172;SDS011;18679;45.190;5.722;2023-10-19T12:55:00;1.65;;;0.63;;
32172;SDS011;18679;45.190;5.722;2023-10-19T12:58:04;0.57;;;0.30;;
32172;SDS011;18679;45.190;5.722;2023-10-19T13:01:15;2.75;;;0.60;;
32172;SDS011;18679;45.190;5.722;2023-10-19T13:04:19;3.17;;;0.40;;
32172;SDS011;18679;45.190;5.722;2023-10-19T13:07:24;0.40;;;0.40;;
32172;SDS011;18679;45.190;5.722;2023-10-19T13:10:29;0.65;;;0.50;;
32172;SDS011;18679;45.190;5.722;2023-10-19T13:13:34;0.40;;;0.40;;
32172;SDS011;18679;45.190;5.722;2023-10-19T13:16:39;0.95;;;0.40;;
32172;SDS011;18679;45.190;5.722;2023-10-19T13:19:41;4.03;;;0.40;;
32172;SDS011;18679;45.190;5.722;2023-10-19T13:22:42;0.50;;;0.40;;
32172;SDS011;18679;45.190;5.722;2023-10-19T13:25:43;0.30;;;0.30;;
32172;SDS011;18679;45.190;5.722;2023-10-19T13:28:50;3.83;;;0.40;;
32172;SDS011;18679;45.190;5.722;2023-10-19T13:31:53;1.05;;;0.38;;
32172;SDS011;18679;45.190;5.722;2023-10-19T13:34:53;1.33;;;0.43;;
32172;SDS011;18679;45.190;5.722;2023-10-19T13:37:55;0.32;;;0.32;;
32172;SDS011;18679;45.190;5.722;2023-10-19T13:40:56;0.85;;;0.30;;
32172;SDS011;18679;45.190;5.722;2023-10-19T13:43:57;0.43;;;0.30;;
32172;SDS011;18679;45.190;5.722;2023-10-19T13:46:58;2.60;;;0.47;;
32172;SDS011;18679;45.190;5.722;2023-10-19T13:49:59;0.40;;;0.40;;
32172;SDS011;18679;45.190;5.722;2023-10-19T13:53:00;0.40;;;0.30;;
32172;SDS011;18679;45.190;5.722;2023-10-19T13:56:08;0.75;;;0.40;;
32172;SDS011;18679;45.190;5.722;2023-10-19T13:59:10;2.88;;;0.40;;
32172;SDS011;18679;45.190;5.722;2023-10-19T14:02:11;1.00;;;0.20;;
32172;SDS011;18679;45.190;5.722;2023-10-19T14:05:12;1.65;;;0.55;;
32172;SDS011;18679;45.190;5.722;2023-10-19T14:08:14;0.73;;;0.32;;
32172;SDS011;18679;45.190;5.722;2023-10-19T14:11:16;1.52;;;0.32;;
32172;SDS011;18679;45.190;5.722;2023-10-19T14:14:17;2.45;;;0.68;;
32172;SDS011;18679;45.190;5.722;2023-10-19T14:17:18;1.10;;;0.45;;
32172;SDS011;18679;45.190;5.722;2023-10-19T14:20:19;0.35;;;0.35;;
32172;SDS011;18679;45.190;5.722;2023-10-19T14:23:20;6.60;;;0.70;;
32172;SDS011;18679;45.190;5.722;2023-10-19T14:26:21;2.35;;;0.52;;
32172;SDS011;18679;45.190;5.722;2023-10-19T14:29:22;2.05;;;0.68;;
32172;SDS011;18679;45.190;5.722;2023-10-19T14:32:23;0.75;;;0.40;;
32172;SDS011;18679;45.190;5.722;2023-10-19T14:35:24;5.70;;;0.40;;
32172;SDS011;18679;45.190;5.722;2023-10-19T14:38:25;1.88;;;0.65;;
32172;SDS011;18679;45.190;5.722;2023-10-19T14:41:27;1.42;;;0.82;;
32172;SDS011;18679;45.190;5.722;2023-10-19T14:44:28;2.67;;;0.52;;
32172;SDS011;18679;45.190;5.722;2023-10-19T14:47:29;3.28;;;0.98;;
32172;SDS011;18679;45.190;5.722;2023-10-19T14:50:30;0.40;;;0.40;;
32172;SDS011;18679;45.190;5.722;2023-10-19T14:53:31;0.77;;;0.43;;
32172;SDS011;18679;45.190;5.722;2023-10-19T14:56:32;4.43;;;0.40;;
32172;SDS011;18679;45.190;5.722;2023-10-19T14:59:33;7.30;;;1.25;;
32172;SDS011;18679;45.190;5.722;2023-10-19T15:02:36;1.80;;;0.60;;
32172;SDS011;18679;45.190;5.722;2023-10-19T15:05:37;1.45;;;0.47;;
32172;SDS011;18679;45.190;5.722;2023-10-19T15:08:38;1.38;;;0.38;;
32172;SDS011;18679;45.190;5.722;2023-10-19T15:11:39;0.93;;;0.65;;
32172;SDS011;18679;45.190;5.722;2023-10-19T15:14:40;1.45;;;0.50;;
32172;SDS011;18679;45.190;5.722;2023-10-19T15:18:07;0.80;;;0.57;;
32172;SDS011;18679;45.190;5.722;2023-10-19T15:21:33;1.27;;;0.70;;
32172;SDS011;18679;45.190;5.722;2023-10-19T15:24:34;1.17;;;0.82;;
32172;SDS011;18679;45.190;5.722;2023-10-19T15:28:02;2.58;;;1.02;;
32172;SDS011;18679;45.190;5.722;2023-10-19T15:31:05;1.20;;;0.52;;
32172;SDS011;18679;45.190;5.722;2023-10-19T15:34:31;1.55;;;0.50;;
32172;SDS011;18679;45.190;5.722;2023-10-19T15:37:34;6.18;;;1.20;;
32172;SDS011;18679;45.190;5.722;2023-10-19T15:40:35;0.40;;;0.40;;
32172;SDS011;18679;45.190;5.722;2023-10-19T15:43:40;1.10;;;0.50;;
32172;SDS011;18679;45.190;5.722;2023-10-19T15:47:06;1.45;;;0.50;;
32172;SDS011;18679;45.190;5.722;2023-10-19T15:50:12;1.83;;;1.02;;
32172;SDS011;18679;45.190;5.722;2023-10-19T15:53:39;2.30;;;0.60;;
32172;SDS011;18679;45.190;5.722;2023-10-19T15:57:05;1.95;;;0.75;;
32172;SDS011;18679;45.190;5.722;2023-10-19T16:00:06;0.32;;;0.32;;
32172;SDS011;18679;45.190;5.722;2023-10-19T16:03:39;2.20;;;0.80;;
32172;SDS011;18679;45.190;5.722;2023-10-19T16:06:39;0.98;;;0.47;;
32172;SDS011;18679;45.190;5.722;2023-10-19T16:09:41;2.30;;;0.40;;
32172;SDS011;18679;45.190;5.722;2023-10-19T16:13:07;0.40;;;0.40;;
32172;SDS011;18679;45.190;5.722;2023-10-19T16:16:12;0.77;;;0.50;;
32172;SDS011;18679;45.190;5.722;2023-10-19T16:19:37;1.17;;;0.60;;
32172;SDS011;18679;45.190;5.722;2023-10-19T16:23:03;0.68;;;0.30;;
32172;SDS011;18679;45.190;5.722;2023-10-19T16:26:05;0.90;;;0.50;;
32172;SDS011;18679;45.190;5.722;2023-10-19T16:29:31;0.65;;;0.50;;
32172;SDS011;18679;45.190;5.722;2023-10-19T16:32:57;0.40;;;0.40;;
32172;SDS011;18679;45.190;5.722;2023-10-19T16:35:58;0.30;;;0.30;;
32172;SDS011;18679;45.190;5.722;2023-10-19T16:39:24;1.42;;;0.45;;
32172;SDS011;18679;45.190;5.722;2023-10-19T16:42:26;1.00;;;0.40;;
32172;SDS011;18679;45.190;5.722;2023-10-19T16:45:27;0.65;;;0.47;;
32172;SDS011;18679;45.190;5.722;2023-10-19T16:48:53;0.63;;;0.60;;
32172;SDS011;18679;45.190;5.722;2023-10-19T16:51:55;0.63;;;0.40;;
32172;SDS011;18679;45.190;5.722;2023-10-19T16:54:56;1.48;;;0.50;;
32172;SDS011;18679;45.190;5.722;2023-10-19T16:57:57;0.85;;;0.50;;
32172;SDS011;18679;45.190;5.722;2023-10-19T17:01:04;0.88;;;0.60;;
32172;SDS011;18679;45.190;5.722;2023-10-19T17:04:30;1.05;;;0.43;;
32172;SDS011;18679;45.190;5.722;2023-10-19T17:07:58;0.70;;;0.70;;
32172;SDS011;18679;45.190;5.722;2023-10-19T17:11:03;2.63;;;0.70;;
32172;SDS011;18679;45.190;5.722;2023-10-19T17:14:04;1.67;;;1.30;;
32172;SDS011;18679;45.190;5.722;2023-10-19T17:17:09;1.20;;;0.70;;
32172;SDS011;18679;45.190;5.722;2023-10-19T17:20:34;2.13;;;0.65;;
32172;SDS011;18679;45.190;5.722;2023-10-19T17:24:01;1.30;;;1.17;;
32172;SDS011;18679;45.190;5.722;2023-10-19T17:27:27;1.55;;;0.60;;
32172;SDS011;18679;45.190;5.722;2023-10-19T17:30:53;0.90;;;0.50;;
32172;SDS011;18679;45.190;5.722;2023-10-19T17:34:19;0.60;;;0.40;;
32172;SDS011;18679;45.190;5.722;2023-10-19T17:37:20;2.63;;;0.50;;
32172;SDS011;18679;45.190;5.722;2023-10-19T17:40:46;0.68;;;0.40;;
32172;SDS011;18679;45.190;5.722;2023-10-19T17:44:12;0.52;;;0.52;;
32172;SDS011;18679;45.190;5.722;2023-10-19T17:47:39;0.35;;;0.35;;
32172;SDS011;18679;45.190;5.722;2023-10-19T17:50:44;0.63;;;0.40;;
32172;SDS011;18679;45.190;5.722;2023-10-19T17:53:48;3.17;;;0.57;;
32172;SDS011;18679;45.190;5.722;2023-10-19T17:56:49;4.50;;;0.70;;
32172;SDS011;18679;45.190;5.722;2023-10-19T18:00:16;1.02;;;0.35;;
32172;SDS011;18679;45.190;5.722;2023-10-19T18:03:20;1.60;;;0.50;;
32172;SDS011;18679;45.190;5.722;2023-10-19T18:06:50;1.48;;;0.50;;
32172;SDS011;18679;45.190;5.722;2023-10-19T18:10:16;0.60;;;0.50;;
32172;SDS011;18679;45.190;5.722;2023-10-19T18:13:43;5.00;;;0.52;;
32172;SDS011;18679;45.190;5.722;2023-10-19T18:17:09;1.40;;;0.35;;
32172;SDS011;18679;45.190;5.722;2023-10-19T18:20:15;1.05;;;0.35;;
32172;SDS011;18679;45.190;5.722;2023-10-19T18:23:16;0.57;;;0.25;;
32172;SDS011;18679;45.190;5.722;2023-10-19T18:26:42;1.95;;;0.50;;
32172;SDS011;18679;45.190;5.722;2023-10-19T18:29:50;0.22;;;0.22;;
32172;SDS011;18679;45.190;5.722;2023-10-19T18:32:51;1.25;;;0.40;;
32172;SDS011;18679;45.190;5.722;2023-10-19T18:35:59;2.03;;;0.73;;
32172;SDS011;18679;45.190;5.722;2023-10-19T18:39:04;0.30;;;0.30;;